createdAt,value
2019-05-15T00:00:08.948Z,1.57
2019-05-15T00:02:38.757Z,1.33
2019-05-15T00:05:29.256Z,1.50
2019-05-15T00:07:59.269Z,1.33
2019-05-15T00:10:28.829Z,1.40
2019-05-15T00:12:58.125Z,1.40
2019-05-15T00:15:27.925Z,1.37
2019-05-15T00:17:57.892Z,1.40
2019-05-15T00:20:26.452Z,1.53
2019-05-15T00:22:54.986Z,1.43
2019-05-15T00:25:23.501Z,1.43
2019-05-15T00:27:52.061Z,1.40
2019-05-15T00:30:22.249Z,1.47
2019-05-15T00:32:51.133Z,1.73
2019-05-15T00:35:19.688Z,1.20
2019-05-15T00:37:49.246Z,1.50
2019-05-15T00:40:18.544Z,1.40
2019-05-15T00:42:48.848Z,1.70
2019-05-15T00:45:18.678Z,1.60
2019-05-15T00:47:48.695Z,1.53
2019-05-15T00:50:18.411Z,1.40
2019-05-15T00:52:48.519Z,1.73
2019-05-15T00:55:19.048Z,1.50
2019-05-15T00:57:48.550Z,1.20
2019-05-15T01:00:32.210Z,1.30
2019-05-15T01:03:00.774Z,1.40
2019-05-15T01:05:29.260Z,1.53
2019-05-15T01:07:58.686Z,1.30
2019-05-15T01:10:29.265Z,1.30
2019-05-15T01:12:58.390Z,1.40
2019-05-15T01:15:28.987Z,1.40
2019-05-15T01:17:58.268Z,1.60
2019-05-15T01:20:28.561Z,1.40
2019-05-15T01:22:59.201Z,1.30
2019-05-15T01:25:28.092Z,1.27
2019-05-15T01:27:58.327Z,1.40
2019-05-15T01:30:28.654Z,1.30
2019-05-15T01:32:59.158Z,1.40
2019-05-15T01:35:28.732Z,1.50
2019-05-15T01:37:58.568Z,1.50
2019-05-15T01:40:28.936Z,1.43
2019-05-15T01:42:58.307Z,1.60
2019-05-15T01:45:28.576Z,1.40
2019-05-15T01:47:58.593Z,1.60
2019-05-15T01:50:29.226Z,1.47
2019-05-15T01:52:58.601Z,1.60
2019-05-15T01:55:28.413Z,1.60
2019-05-15T01:57:58.141Z,1.53
2019-05-15T02:00:28.263Z,1.60
2019-05-15T02:02:58.726Z,1.57
2019-05-15T02:05:28.255Z,1.40
2019-05-15T02:07:58.490Z,1.40
2019-05-15T02:10:29.215Z,1.00
2019-05-15T02:12:58.771Z,1.47
2019-05-15T02:15:28.570Z,1.43
2019-05-15T02:17:58.832Z,1.67
2019-05-15T02:20:29.121Z,1.30
2019-05-15T02:22:59.123Z,1.30
2019-05-15T02:25:28.132Z,1.83
2019-05-15T02:27:58.710Z,1.53
2019-05-15T02:30:30.041Z,1.47
2019-05-15T02:32:59.082Z,1.70
2019-05-15T02:35:29.590Z,1.33
2019-05-15T02:37:59.776Z,1.57
2019-05-15T02:40:29.456Z,1.50
2019-05-15T02:42:59.149Z,1.80
2019-05-15T02:45:30.059Z,1.97
2019-05-15T02:47:59.701Z,1.60
2019-05-15T02:50:29.286Z,1.87
2019-05-15T02:53:00.514Z,1.63
2019-05-15T02:55:29.667Z,1.70
2019-05-15T02:57:59.021Z,1.50
2019-05-15T03:00:37.721Z,1.30
2019-05-15T03:03:00.121Z,1.50
2019-05-15T03:05:29.589Z,1.60
2019-05-15T03:07:59.316Z,1.80
2019-05-15T03:10:29.732Z,1.70
2019-05-15T03:13:00.177Z,1.80
2019-05-15T03:15:29.212Z,1.70
2019-05-15T03:18:00.410Z,1.77
2019-05-15T03:20:30.805Z,1.97
2019-05-15T03:22:59.873Z,1.90
2019-05-15T03:25:29.926Z,1.57
2019-05-15T03:27:59.601Z,1.80
2019-05-15T03:30:32.343Z,2.07
2019-05-15T03:33:03.974Z,1.70
2019-05-15T03:35:32.944Z,1.80
2019-05-15T03:37:59.893Z,1.80
2019-05-15T03:40:29.973Z,1.90
2019-05-15T03:42:59.461Z,1.50
2019-05-15T03:45:29.974Z,1.73
2019-05-15T03:47:59.523Z,1.77
2019-05-15T03:50:29.053Z,1.70
2019-05-15T03:52:58.814Z,1.50
2019-05-15T03:55:29.672Z,1.57
2019-05-15T03:57:59.176Z,1.57
2019-05-15T04:00:30.163Z,1.70
2019-05-15T04:02:59.231Z,1.83
2019-05-15T04:05:29.358Z,1.50
2019-05-15T04:08:00.020Z,1.60
2019-05-15T04:10:29.002Z,1.33
2019-05-15T04:12:59.992Z,1.50
2019-05-15T04:15:30.151Z,1.47
2019-05-15T04:18:00.351Z,1.50
2019-05-15T04:20:29.731Z,1.60
2019-05-15T04:23:00.334Z,1.70
2019-05-15T04:25:30.080Z,1.63
2019-05-15T04:28:00.279Z,1.70
2019-05-15T04:30:30.738Z,1.47
2019-05-15T04:32:59.557Z,1.50
2019-05-15T04:35:28.957Z,1.60
2019-05-15T04:37:59.755Z,1.70
2019-05-15T04:40:29.872Z,1.30
2019-05-15T04:42:59.310Z,1.33
2019-05-15T04:45:34.426Z,1.70
2019-05-15T04:47:58.818Z,1.50
2019-05-15T04:50:28.762Z,1.80
2019-05-15T04:52:59.260Z,1.30
2019-05-15T04:55:29.088Z,1.70
2019-05-15T04:57:59.284Z,1.53
2019-05-15T05:00:49.590Z,1.70
2019-05-15T05:03:19.882Z,1.50
2019-05-15T05:05:50.024Z,1.83
2019-05-15T05:08:20.181Z,1.80
2019-05-15T05:10:49.474Z,1.50
2019-05-15T05:13:20.005Z,1.80
2019-05-15T05:15:49.983Z,1.80
2019-05-15T05:18:19.196Z,1.80
2019-05-15T05:20:48.678Z,1.40
2019-05-15T05:23:19.129Z,1.97
2019-05-15T05:25:49.191Z,1.80
2019-05-15T05:28:18.248Z,1.83
2019-05-15T05:30:48.255Z,2.23
2019-05-15T05:33:18.411Z,1.80
2019-05-15T05:35:48.483Z,1.97
2019-05-15T05:38:19.510Z,2.10
2019-05-15T05:40:49.848Z,1.90
2019-05-15T05:43:20.148Z,2.03
2019-05-15T05:45:49.552Z,2.00
2019-05-15T05:48:19.203Z,2.07
2019-05-15T05:50:49.499Z,2.13
2019-05-15T05:53:20.844Z,2.50
2019-05-15T05:55:52.486Z,2.10
2019-05-15T05:58:19.821Z,1.50
2019-05-15T06:00:49.375Z,1.70
2019-05-15T06:03:19.777Z,1.87
2019-05-15T06:05:49.572Z,1.60
2019-05-15T06:08:19.480Z,1.70
2019-05-15T06:10:49.667Z,1.80
2019-05-15T06:13:18.787Z,1.83
2019-05-15T06:15:49.118Z,2.00
2019-05-15T06:18:19.758Z,1.77
2019-05-15T06:20:49.697Z,1.30
2019-05-15T06:23:23.237Z,1.80
2019-05-15T06:25:49.538Z,1.93
2019-05-15T06:28:19.541Z,1.50
2019-05-15T06:30:48.903Z,1.70
2019-05-15T06:33:18.669Z,1.70
2019-05-15T06:35:48.952Z,1.80
2019-05-15T06:38:19.467Z,2.13
2019-05-15T06:40:49.306Z,1.67
2019-05-15T06:43:19.115Z,1.53
2019-05-15T06:45:49.063Z,1.60
2019-05-15T06:48:18.541Z,1.40
2019-05-15T06:50:49.169Z,1.70
2019-05-15T06:53:19.159Z,1.60
2019-05-15T06:55:48.678Z,1.77
2019-05-15T06:58:19.071Z,1.30
2019-05-15T07:00:48.891Z,1.70
2019-05-15T07:03:24.851Z,1.30
2019-05-15T07:05:50.835Z,1.20
2019-05-15T07:08:18.780Z,1.33
2019-05-15T07:10:48.633Z,1.10
2019-05-15T07:13:18.284Z,1.10
2019-05-15T07:15:49.573Z,1.12
2019-05-15T07:18:19.726Z,1.00
2019-05-15T07:20:48.798Z,1.15
2019-05-15T07:23:18.711Z,1.22
2019-05-15T07:25:49.685Z,0.95
2019-05-15T07:28:18.405Z,1.30
2019-05-15T07:30:49.346Z,1.10
2019-05-15T07:33:35.860Z,1.40
2019-05-15T07:35:50.996Z,0.90
2019-05-15T07:38:19.647Z,1.00
2019-05-15T07:40:56.892Z,1.05
2019-05-15T07:43:18.537Z,1.05
2019-05-15T07:45:53.995Z,1.00
2019-05-15T07:48:18.841Z,1.17
2019-05-15T07:50:49.681Z,0.82
2019-05-15T07:53:19.781Z,1.00
2019-05-15T07:55:50.082Z,0.80
2019-05-15T07:58:21.269Z,1.20
2019-05-15T08:00:49.506Z,0.93
2019-05-15T08:03:18.616Z,0.70
2019-05-15T08:05:58.930Z,0.80
2019-05-15T08:08:18.412Z,0.60
2019-05-15T08:10:48.963Z,0.80
2019-05-15T08:13:18.475Z,0.80
2019-05-15T08:15:48.856Z,0.67
2019-05-15T08:18:18.356Z,0.80
2019-05-15T08:20:49.095Z,0.60
2019-05-15T08:23:19.335Z,0.80
2019-05-15T08:25:48.620Z,1.00
2019-05-15T08:28:19.025Z,0.90
2019-05-15T08:30:49.311Z,1.00
2019-05-15T08:33:18.737Z,0.70
2019-05-15T08:35:51.428Z,0.80
2019-05-15T08:38:18.410Z,0.80
2019-05-15T08:40:48.923Z,0.77
2019-05-15T08:43:18.402Z,0.73
2019-05-15T08:45:49.607Z,0.80
2019-05-15T08:48:18.549Z,0.90
2019-05-15T08:50:48.695Z,0.87
2019-05-15T08:53:19.419Z,0.80
2019-05-15T08:55:48.486Z,0.73
2019-05-15T08:58:20.136Z,0.90
2019-05-15T09:00:51.833Z,0.53
2019-05-15T09:03:18.394Z,0.80
2019-05-15T09:05:48.430Z,0.80
2019-05-15T09:08:19.263Z,0.70
2019-05-15T09:10:49.854Z,1.07
2019-05-15T09:13:19.011Z,1.00
2019-05-15T09:15:48.502Z,0.87
2019-05-15T09:18:19.984Z,1.00
2019-05-15T09:20:49.144Z,0.83
2019-05-15T09:23:19.437Z,0.90
2019-05-15T09:25:49.403Z,0.80
2019-05-15T09:28:19.182Z,1.00
2019-05-15T09:30:48.564Z,0.90
2019-05-15T09:33:19.595Z,1.50
2019-05-15T09:35:49.082Z,0.70
2019-05-15T09:38:18.388Z,0.80
2019-05-15T09:40:50.165Z,0.93
2019-05-15T09:43:18.314Z,0.90
2019-05-15T09:45:49.315Z,0.80
2019-05-15T09:48:19.809Z,1.00
2019-05-15T09:50:49.275Z,0.97
2019-05-15T09:53:18.794Z,0.80
2019-05-15T09:55:49.299Z,0.97
2019-05-15T09:58:20.499Z,0.80
2019-05-15T10:00:51.791Z,0.90
2019-05-15T10:03:20.278Z,1.00
2019-05-15T10:05:49.096Z,0.97
2019-05-15T10:08:20.983Z,0.80
2019-05-15T10:10:48.726Z,1.10
2019-05-15T10:13:18.640Z,1.00
2019-05-15T10:15:50.910Z,0.80
2019-05-15T10:18:19.074Z,1.00
2019-05-15T10:20:48.286Z,0.87
2019-05-15T10:23:19.473Z,0.80
2019-05-15T10:25:48.704Z,0.90
2019-05-15T10:28:19.099Z,1.00
2019-05-15T10:30:49.672Z,1.00
2019-05-15T10:33:19.613Z,1.03
2019-05-15T10:35:49.158Z,1.00
2019-05-15T10:38:19.305Z,1.00
2019-05-15T10:41:00.181Z,1.00
2019-05-15T10:43:20.719Z,1.00
2019-05-15T10:45:49.991Z,1.10
2019-05-15T10:48:19.206Z,1.00
2019-05-15T10:50:47.912Z,1.00
2019-05-15T10:53:18.874Z,1.00
2019-05-15T10:55:49.469Z,1.17
2019-05-15T10:58:21.918Z,1.13
2019-05-15T11:00:49.636Z,1.20
2019-05-15T11:03:19.887Z,0.97
2019-05-15T11:05:49.180Z,1.30
2019-05-15T11:08:18.828Z,1.30
2019-05-15T11:10:49.431Z,1.10
2019-05-15T11:13:18.820Z,1.20
2019-05-15T11:15:49.114Z,1.00
2019-05-15T11:18:18.079Z,0.90
2019-05-15T11:20:48.770Z,1.00
2019-05-15T11:23:19.497Z,1.00
2019-05-15T11:25:48.690Z,1.00
2019-05-15T11:28:17.553Z,1.00
2019-05-15T11:30:49.008Z,1.07
2019-05-15T11:33:18.780Z,1.00
2019-05-15T11:35:58.106Z,0.97
2019-05-15T11:38:19.256Z,1.30
2019-05-15T11:40:47.311Z,1.10
2019-05-15T11:43:15.814Z,1.10
2019-05-15T11:45:44.353Z,1.17
2019-05-15T11:48:12.864Z,1.07
2019-05-15T11:50:42.934Z,1.00
2019-05-15T11:53:11.439Z,0.80
2019-05-15T11:55:39.966Z,1.10
2019-05-15T11:58:09.363Z,1.20
2019-05-15T12:00:38.540Z,1.20
2019-05-15T12:03:08.902Z,1.10
2019-05-15T12:05:38.502Z,1.00
2019-05-15T12:08:09.078Z,0.90
2019-05-15T12:10:38.944Z,1.10
2019-05-15T12:13:09.945Z,1.40
2019-05-15T12:15:39.089Z,0.90
2019-05-15T12:18:08.826Z,0.93
2019-05-15T12:20:39.032Z,1.10
2019-05-15T12:23:09.408Z,1.07
2019-05-15T12:25:39.479Z,0.90
2019-05-15T12:28:09.946Z,1.13
2019-05-15T12:30:40.216Z,1.03
2019-05-15T12:35:40.148Z,1.10
2019-05-15T12:38:10.302Z,1.10
2019-05-15T12:39:25.491Z,0.90
2019-05-15T13:00:42.344Z,0.97
2019-05-15T13:03:11.775Z,0.90
2019-05-15T13:05:40.360Z,0.90
2019-05-15T13:08:09.058Z,0.90
2019-05-15T13:10:38.881Z,1.30
2019-05-15T13:13:09.563Z,1.10
2019-05-15T13:15:41.155Z,1.10
2019-05-15T13:18:13.756Z,0.97
2019-05-15T13:20:39.471Z,1.10
2019-05-15T13:23:09.355Z,1.00
2019-05-15T13:25:39.322Z,1.27
2019-05-15T13:28:08.929Z,1.20
2019-05-15T13:30:41.167Z,1.10
2019-05-15T13:33:09.890Z,1.20
2019-05-15T13:35:38.661Z,1.50
2019-05-15T13:38:10.017Z,1.00
2019-05-15T13:40:41.712Z,1.00
2019-05-15T13:43:08.438Z,1.17
2019-05-15T13:45:38.792Z,1.20
2019-05-15T13:48:08.902Z,1.20
2019-05-15T13:50:40.348Z,1.30
2019-05-15T13:53:10.438Z,1.10
2019-05-15T13:55:42.513Z,1.27
2019-05-15T13:58:09.202Z,1.63
2019-05-15T14:00:38.941Z,1.40
2019-05-15T14:03:09.137Z,0.90
2019-05-15T14:05:38.667Z,1.33
2019-05-15T14:08:07.565Z,1.37
2019-05-15T14:10:38.487Z,1.20
2019-05-15T14:13:06.508Z,1.37
2019-05-15T14:15:35.091Z,1.30
2019-05-15T14:18:03.687Z,1.20
2019-05-15T14:20:32.189Z,1.47
2019-05-15T14:23:02.293Z,1.30
2019-05-15T14:25:30.892Z,1.47
2019-05-15T14:27:59.691Z,1.23
2019-05-15T14:30:29.204Z,1.27
2019-05-15T14:32:59.653Z,1.40
2019-05-15T14:35:28.377Z,1.30
2019-05-15T14:38:05.455Z,1.17
2019-05-15T14:40:27.588Z,1.00
2019-05-15T14:42:59.185Z,1.10
2019-05-15T14:45:28.013Z,1.20
2019-05-15T14:47:58.168Z,1.20
2019-05-15T14:50:28.347Z,1.40
2019-05-15T14:52:58.566Z,1.23
2019-05-15T14:55:33.300Z,1.40
2019-05-15T14:57:58.787Z,1.13
2019-05-15T15:00:33.366Z,1.60
2019-05-15T15:02:58.887Z,1.60
2019-05-15T15:05:27.942Z,1.60
2019-05-15T15:07:58.603Z,1.50
2019-05-15T15:10:28.921Z,1.30
2019-05-15T15:12:58.507Z,1.30
2019-05-15T15:15:28.711Z,1.33
2019-05-15T15:17:58.318Z,1.13
2019-05-15T15:20:28.548Z,1.37
2019-05-15T15:22:58.762Z,1.33
2019-05-15T15:25:27.660Z,1.60
2019-05-15T15:27:58.479Z,1.90
2019-05-15T15:30:26.378Z,1.97
2019-05-15T15:32:54.885Z,1.63
2019-05-15T15:35:23.428Z,1.40
2019-05-15T15:37:51.906Z,1.30
2019-05-15T15:40:20.797Z,1.60
2019-05-15T15:42:49.370Z,1.50
2019-05-15T15:45:19.264Z,1.87
2019-05-15T15:47:48.169Z,1.30
2019-05-15T15:50:18.426Z,1.27
2019-05-15T15:52:48.847Z,1.27
2019-05-15T15:55:18.456Z,1.40
2019-05-15T15:57:48.741Z,1.37
2019-05-15T16:00:18.517Z,1.27
2019-05-15T16:02:48.395Z,1.30
2019-05-15T16:05:19.095Z,1.30
2019-05-15T16:07:48.498Z,1.17
2019-05-15T16:10:19.035Z,1.40
2019-05-15T16:12:49.235Z,1.43
2019-05-15T16:15:18.420Z,1.43
2019-05-15T16:17:48.846Z,1.30
2019-05-15T16:20:19.024Z,1.30
2019-05-15T16:22:48.620Z,1.20
2019-05-15T16:25:18.389Z,1.50
2019-05-15T16:27:48.801Z,1.23
2019-05-15T16:30:18.902Z,1.23
2019-05-15T16:32:47.484Z,1.40
2019-05-15T16:35:18.457Z,1.77
2019-05-15T16:37:49.225Z,1.57
2019-05-15T16:40:20.458Z,1.50
2019-05-15T16:42:49.020Z,1.80
2019-05-15T16:45:17.741Z,1.40
2019-05-15T16:47:48.077Z,1.40
2019-05-15T16:50:18.138Z,1.50
2019-05-15T16:52:49.022Z,1.43
2019-05-15T16:55:17.450Z,1.43
2019-05-15T16:57:47.922Z,1.33
2019-05-15T17:00:18.640Z,1.17
2019-05-15T17:02:48.228Z,1.30
2019-05-15T17:05:18.534Z,1.53
2019-05-15T17:07:48.852Z,1.40
2019-05-15T17:10:18.072Z,2.20
2019-05-15T17:12:49.051Z,2.57
2019-05-15T17:15:17.348Z,2.13
2019-05-15T17:17:48.580Z,2.33
2019-05-15T17:20:18.062Z,2.03
2019-05-15T17:22:48.379Z,2.20
2019-05-15T17:25:18.320Z,1.80
2019-05-15T17:27:47.382Z,1.60
2019-05-15T17:30:18.215Z,2.07
2019-05-15T17:32:49.083Z,1.90
2019-05-15T17:35:18.439Z,1.57
2019-05-15T17:37:48.677Z,1.37
2019-05-15T17:40:17.964Z,1.62
2019-05-15T17:42:48.990Z,1.70
2019-05-15T17:45:19.263Z,1.40
2019-05-15T17:47:48.749Z,1.67
2019-05-15T17:50:19.057Z,1.57
2019-05-15T17:52:49.190Z,1.57
2019-05-15T17:55:18.434Z,1.43
2019-05-15T17:57:54.616Z,1.70
2019-05-15T18:00:19.339Z,1.80
2019-05-15T18:02:48.632Z,1.40
2019-05-15T18:05:18.884Z,1.57
2019-05-15T18:07:48.860Z,1.30
2019-05-15T18:10:18.833Z,1.57
2019-05-15T18:12:48.776Z,1.80
2019-05-15T18:15:18.043Z,1.60
2019-05-15T18:17:48.232Z,1.90
2019-05-15T18:20:29.561Z,1.90
2019-05-15T18:22:59.266Z,2.17
2019-05-15T18:25:28.108Z,1.60
2019-05-15T18:27:58.829Z,2.00
2019-05-15T18:30:28.143Z,2.00
2019-05-15T18:32:58.712Z,2.23
2019-05-15T18:35:29.548Z,2.23
2019-05-15T18:37:59.184Z,2.40
2019-05-15T18:40:28.007Z,1.90
2019-05-15T18:42:59.227Z,2.60
2019-05-15T18:45:34.847Z,2.17
2019-05-15T18:48:03.357Z,2.30
2019-05-15T18:50:33.508Z,1.90
2019-05-15T18:53:08.988Z,2.00
2019-05-15T18:55:38.621Z,2.07
2019-05-15T18:58:08.800Z,1.87
2019-05-15T19:00:39.887Z,1.80
2019-05-15T19:03:19.184Z,1.87
2019-05-15T19:05:38.684Z,2.00
2019-05-15T19:08:08.385Z,1.83
2019-05-15T19:10:38.598Z,1.87
2019-05-15T19:13:08.484Z,1.80
2019-05-15T19:15:37.991Z,1.83
2019-05-15T19:18:08.079Z,1.80
2019-05-15T19:20:38.857Z,1.97
2019-05-15T19:23:07.964Z,1.57
2019-05-15T19:25:37.560Z,1.63
2019-05-15T19:28:08.352Z,1.77
2019-05-15T19:30:38.708Z,1.57
2019-05-15T19:33:12.928Z,1.70
2019-05-15T19:35:41.392Z,1.50
2019-05-15T19:38:09.895Z,1.70
2019-05-15T19:40:38.960Z,1.47
2019-05-15T19:43:09.237Z,1.47
2019-05-15T19:45:38.704Z,1.60
2019-05-15T19:48:08.964Z,1.80
2019-05-15T19:50:37.575Z,1.70
2019-05-15T19:53:08.049Z,2.20
2019-05-15T19:55:36.279Z,1.83
2019-05-15T19:58:04.760Z,1.70
2019-05-15T20:00:33.347Z,1.40
2019-05-15T20:03:01.810Z,1.90
2019-05-15T20:05:30.368Z,1.63
2019-05-15T20:07:59.222Z,1.70
2019-05-15T20:10:29.240Z,1.40
2019-05-15T20:12:59.351Z,1.70
2019-05-15T20:15:28.698Z,1.47
2019-05-15T20:17:57.721Z,1.97
2019-05-15T20:20:28.267Z,1.60
2019-05-15T20:22:59.750Z,1.90
2019-05-15T20:25:27.807Z,1.80
2019-05-15T20:27:56.593Z,2.07
2019-05-15T20:30:25.148Z,1.67
2019-05-15T20:32:53.661Z,1.40
2019-05-15T20:35:22.138Z,1.30
2019-05-15T20:37:50.932Z,1.60
2019-05-15T20:40:19.688Z,1.77
2019-05-15T20:42:48.486Z,1.50
2019-05-15T20:45:18.422Z,1.40
2019-05-15T20:47:47.129Z,1.43
2019-05-15T20:50:15.623Z,1.57
2019-05-15T20:52:44.143Z,1.50
2019-05-15T20:55:13.509Z,1.97
2019-05-15T20:57:42.006Z,1.60
2019-05-15T21:00:13.074Z,1.67
2019-05-15T21:02:41.543Z,1.60
2019-05-15T21:05:10.168Z,1.53
2019-05-15T21:07:42.775Z,1.77
2019-05-15T21:10:10.336Z,1.60
2019-05-15T21:12:41.053Z,1.50
2019-05-15T21:15:10.408Z,1.63
2019-05-15T21:17:40.520Z,1.40
2019-05-15T21:20:09.832Z,1.53
2019-05-15T21:22:40.266Z,1.73
2019-05-15T21:25:10.683Z,1.70
2019-05-15T21:27:42.650Z,1.80
2019-05-15T21:30:10.789Z,1.50
2019-05-15T21:32:39.254Z,1.50
2019-05-15T21:35:09.064Z,1.23
2019-05-15T21:37:38.972Z,1.53
2019-05-15T21:40:09.150Z,1.60
2019-05-15T21:42:39.045Z,1.10
2019-05-15T21:45:14.332Z,1.23
2019-05-15T21:47:39.769Z,1.80
2019-05-15T21:50:09.223Z,1.50
2019-05-15T21:52:39.037Z,1.10
2019-05-15T21:55:09.593Z,1.13
2019-05-15T21:57:40.189Z,1.50
2019-05-15T22:00:11.513Z,1.23
2019-05-15T22:02:40.330Z,1.80
2019-05-15T22:05:08.976Z,1.30
2019-05-15T22:07:38.814Z,1.50
2019-05-15T22:10:10.990Z,1.50
2019-05-15T22:12:39.040Z,1.20
2019-05-15T22:15:09.104Z,1.40
2019-05-15T22:17:38.900Z,1.37
2019-05-15T22:20:08.841Z,1.30
2019-05-15T22:22:37.426Z,1.23
2019-05-15T22:25:10.748Z,1.00
2019-05-15T22:27:38.425Z,1.43
2019-05-15T22:30:09.379Z,1.20
2019-05-15T22:32:41.542Z,1.43
2019-05-15T22:35:13.319Z,1.50
2019-05-15T22:37:41.601Z,1.27
2019-05-15T22:40:11.267Z,1.47
2019-05-15T22:42:39.952Z,1.77
2019-05-15T22:45:11.779Z,1.43
2019-05-15T22:47:40.483Z,1.60
2019-05-15T22:50:09.801Z,1.17
2019-05-15T22:52:39.060Z,1.37
2019-05-15T22:55:08.816Z,1.37
2019-05-15T22:57:38.903Z,1.40
2019-05-15T23:00:08.838Z,1.20
2019-05-15T23:02:37.429Z,1.60
2019-05-15T23:05:23.137Z,1.40
2019-05-15T23:07:38.981Z,1.57
2019-05-15T23:10:09.169Z,1.50
2019-05-15T23:12:38.263Z,1.63
2019-05-15T23:15:08.670Z,1.40
2019-05-15T23:17:38.357Z,1.17
2019-05-15T23:20:09.064Z,1.20
2019-05-15T23:22:38.548Z,1.30
2019-05-15T23:25:07.669Z,1.70
2019-05-15T23:27:38.156Z,1.27
2019-05-15T23:30:08.968Z,1.20
2019-05-15T23:32:39.225Z,1.33
2019-05-15T23:35:08.902Z,1.40
2019-05-15T23:37:39.262Z,1.47
2019-05-15T23:40:08.907Z,1.50
2019-05-15T23:42:38.946Z,1.60
2019-05-15T23:45:08.959Z,1.50
2019-05-15T23:47:38.412Z,2.00
2019-05-15T23:50:07.854Z,1.73
2019-05-15T23:52:38.502Z,1.43
2019-05-15T23:55:08.576Z,1.60
2019-05-15T23:57:39.366Z,1.23
